MMAA/ACA METAR and TAF weather

Enter ICAO airport designator
Station Type Date Time Source
MMAA METAR 2019/05/26 00:43 UTC NOAA

MMAA 260043Z 27008KT 5SM SCT300 29/25 A2980 RMK 8/002 HZY AC FU SE


Station Type Date Time Source
MMAA Decoded METAR 2019/05/26 00:43 UTC NOAA

Acapulco / G. Alvarez, Mexico (MMAA) 16-46N 099-45W
May 25, 2019 - 08:43 PM EDT / 2019.05.26 0043 UTC
Wind: from the W (270 degrees) at 9 MPH (8 KT):0
Visibility: 5 mile(s):0
Sky conditions: partly cloudy
Temperature: 84 F (29 C)
Dew Point: 77 F (25 C)
Relative Humidity: 79%
Pressure (altimeter): 29.8 in. Hg (1009 hPa)
ob: MMAA 260043Z 27008KT 5SM SCT300 29/25 A2980 RMK 8/002 HZY AC FU SE
cycle: 0

Station Type Date Time Source
MMAA TAF 2019/05/25 18:24 UTC NOAA

TAF TAF MMAA 251621Z 2518/2624 24010KT 5SM HZ SCT120 SCT300 TX31/2519Z TN25/2609Z
FM260400 30005KT 4SM HZ SCT015
TEMPO 2604/2608 BKN015
FM261700 24010KT 5SM HZ SCT300

Example: see airport list